sensor_id;sensor_type;location;lat;lon;timestamp;pressure;altitude;pressure_sealevel;temperature;humidity
61478;BME280;47345;52.334;10.392;2023-02-19T20:24:28;101635.61;;;4.83;82.23
61478;BME280;47345;52.334;10.392;2023-02-19T20:27:01;101633.67;;;4.82;82.31
61478;BME280;47345;52.334;10.392;2023-02-19T20:29:33;101638.29;;;4.85;82.52
61478;BME280;47345;52.334;10.392;2023-02-19T20:32:05;101640.48;;;4.87;82.54
61478;BME280;47345;52.334;10.392;2023-02-19T20:34:37;101642.67;;;4.88;82.52
61478;BME280;47345;52.334;10.392;2023-02-19T20:37:08;101645.41;;;4.88;82.36
61478;BME280;47345;52.334;10.392;2023-02-19T20:39:40;101644.44;;;4.89;82.40
61478;BME280;47345;52.334;10.392;2023-02-19T20:42:11;101646.27;;;4.89;82.42
61478;BME280;47345;52.334;10.392;2023-02-19T20:44:47;101648.38;;;4.89;82.61
61478;BME280;47345;52.334;10.392;2023-02-19T20:47:19;101653.11;;;4.89;82.66
61478;BME280;47345;52.334;10.392;2023-02-19T20:49:51;101655.58;;;4.89;82.59
61478;BME280;47345;52.334;10.392;2023-02-19T20:52:22;101654.65;;;4.90;82.72
61478;BME280;47345;52.334;10.392;2023-02-19T20:54:56;101652.63;;;4.90;82.63
61478;BME280;47345;52.334;10.392;2023-02-19T20:57:28;101654.05;;;4.91;82.76
61478;BME280;47345;52.334;10.392;2023-02-19T21:00:00;101656.19;;;4.91;82.66
61478;BME280;47345;52.334;10.392;2023-02-19T21:02:33;101655.84;;;4.91;82.72
61478;BME280;47345;52.334;10.392;2023-02-19T21:05:05;101663.44;;;4.91;82.67
61478;BME280;47345;52.334;10.392;2023-02-19T21:07:38;101662.08;;;4.88;82.49
61478;BME280;47345;52.334;10.392;2023-02-19T21:10:12;101658.14;;;4.83;82.54
61478;BME280;47345;52.334;10.392;2023-02-19T21:12:44;101655.10;;;4.81;82.33
61478;BME280;47345;52.334;10.392;2023-02-19T21:15:15;101645.02;;;4.77;82.34
61478;BME280;47345;52.334;10.392;2023-02-19T21:17:47;101640.67;;;4.73;82.36
61478;BME280;47345;52.334;10.392;2023-02-19T21:20:18;101638.48;;;4.70;82.47
61478;BME280;47345;52.334;10.392;2023-02-19T21:22:50;101639.63;;;4.65;82.33
61478;BME280;47345;52.334;10.392;2023-02-19T21:25:22;101631.26;;;4.60;82.49
61478;BME280;47345;52.334;10.392;2023-02-19T21:27:54;101638.24;;;4.57;82.46
61478;BME280;47345;52.334;10.392;2023-02-19T21:30:25;101642.73;;;4.53;82.56
61478;BME280;47345;52.334;10.392;2023-02-19T21:32:58;101635.55;;;4.51;82.87
61478;BME280;47345;52.334;10.392;2023-02-19T21:35:31;101632.24;;;4.48;83.06
61478;BME280;47345;52.334;10.392;2023-02-19T21:38:04;101631.97;;;4.45;83.16
61478;BME280;47345;52.334;10.392;2023-02-19T21:40:38;101627.04;;;4.41;83.07
61478;BME280;47345;52.334;10.392;2023-02-19T21:43:11;101625.55;;;4.38;83.24
61478;BME280;47345;52.334;10.392;2023-02-19T21:45:44;101629.84;;;4.35;83.44
61478;BME280;47345;52.334;10.392;2023-02-19T21:48:19;101631.41;;;4.31;83.49
61478;BME280;47345;52.334;10.392;2023-02-19T21:50:51;101628.18;;;4.29;83.56
61478;BME280;47345;52.334;10.392;2023-02-19T21:53:24;101627.92;;;4.28;83.71
61478;BME280;47345;52.334;10.392;2023-02-19T21:55:57;101628.23;;;4.28;83.94
61478;BME280;47345;52.334;10.392;2023-02-19T21:58:29;101622.44;;;4.31;84.06
61478;BME280;47345;52.334;10.392;2023-02-19T22:01:04;101620.40;;;4.33;84.34
61478;BME280;47345;52.334;10.392;2023-02-19T22:03:37;101616.58;;;4.36;84.53
61478;BME280;47345;52.334;10.392;2023-02-19T22:06:13;101613.48;;;4.38;84.54
61478;BME280;47345;52.334;10.392;2023-02-19T22:08:46;101616.99;;;4.39;84.60
61478;BME280;47345;52.334;10.392;2023-02-19T22:11:19;101621.60;;;4.40;84.41
61478;BME280;47345;52.334;10.392;2023-02-19T22:13:51;101628.66;;;4.41;84.74
61478;BME280;47345;52.334;10.392;2023-02-19T22:16:24;101631.54;;;4.43;84.79
61478;BME280;47345;52.334;10.392;2023-02-19T22:18:58;101624.89;;;4.45;84.84
61478;BME280;47345;52.334;10.392;2023-02-19T22:21:33;101619.27;;;4.47;84.94
61478;BME280;47345;52.334;10.392;2023-02-19T22:24:12;101620.69;;;4.49;85.06
61478;BME280;47345;52.334;10.392;2023-02-19T22:26:46;101619.83;;;4.53;85.27
61478;BME280;47345;52.334;10.392;2023-02-19T22:29:21;101624.67;;;4.55;85.42
61478;BME280;47345;52.334;10.392;2023-02-19T22:31:54;101625.44;;;4.56;85.35
61478;BME280;47345;52.334;10.392;2023-02-19T22:34:27;101624.98;;;4.57;85.57
61478;BME280;47345;52.334;10.392;2023-02-19T22:36:59;101629.41;;;4.59;85.72
61478;BME280;47345;52.334;10.392;2023-02-19T22:39:31;101631.29;;;4.60;85.76
61478;BME280;47345;52.334;10.392;2023-02-19T22:42:04;101623.63;;;4.61;85.81
61478;BME280;47345;52.334;10.392;2023-02-19T22:44:36;101620.41;;;4.62;85.92
61478;BME280;47345;52.334;10.392;2023-02-19T22:47:09;101615.10;;;4.63;86.08
61478;BME280;47345;52.334;10.392;2023-02-19T22:49:41;101609.54;;;4.64;86.26
61478;BME280;47345;52.334;10.392;2023-02-19T22:52:14;101606.20;;;4.65;86.41
61478;BME280;47345;52.334;10.392;2023-02-19T22:54:45;101598.95;;;4.66;86.38
61478;BME280;47345;52.334;10.392;2023-02-19T22:57:17;101598.64;;;4.65;86.46
61478;BME280;47345;52.334;10.392;2023-02-19T22:59:49;101604.11;;;4.66;86.48
61478;BME280;47345;52.334;10.392;2023-02-19T23:02:21;101607.44;;;4.67;86.76
61478;BME280;47345;52.334;10.392;2023-02-19T23:04:54;101603.98;;;4.67;86.65
61478;BME280;47345;52.334;10.392;2023-02-19T23:07:27;101600.88;;;4.68;87.09
61478;BME280;47345;52.334;10.392;2023-02-19T23:09:58;101593.48;;;4.68;87.09
61478;BME280;47345;52.334;10.392;2023-02-19T23:12:30;101592.63;;;4.69;87.23
61478;BME280;47345;52.334;10.392;2023-02-19T23:15:02;101590.44;;;4.67;87.21
61478;BME280;47345;52.334;10.392;2023-02-19T23:17:34;101584.92;;;4.70;87.36
61478;BME280;47345;52.334;10.392;2023-02-19T23:20:08;101575.02;;;4.70;87.38
61478;BME280;47345;52.334;10.392;2023-02-19T23:22:39;101577.36;;;4.72;87.58
61478;BME280;47345;52.334;10.392;2023-02-19T23:25:10;101582.19;;;4.72;87.62
61478;BME280;47345;52.334;10.392;2023-02-19T23:27:41;101581.45;;;4.75;87.77
61478;BME280;47345;52.334;10.392;2023-02-19T23:30:15;101575.01;;;4.76;87.74
61478;BME280;47345;52.334;10.392;2023-02-19T23:32:46;101574.02;;;4.77;87.64
61478;BME280;47345;52.334;10.392;2023-02-19T23:35:18;101569.16;;;4.79;87.91
61478;BME280;47345;52.334;10.392;2023-02-19T23:37:50;101559.99;;;4.80;87.74
61478;BME280;47345;52.334;10.392;2023-02-19T23:40:22;101554.14;;;4.82;87.78
61478;BME280;47345;52.334;10.392;2023-02-19T23:42:53;101549.48;;;4.82;87.90
61478;BME280;47345;52.334;10.392;2023-02-19T23:45:25;101552.51;;;4.84;87.94
61478;BME280;47345;52.334;10.392;2023-02-19T23:47:59;101555.00;;;4.86;87.91
61478;BME280;47345;52.334;10.392;2023-02-19T23:50:31;101555.06;;;4.88;87.90
61478;BME280;47345;52.334;10.392;2023-02-19T23:53:03;101558.50;;;4.90;87.94
61478;BME280;47345;52.334;10.392;2023-02-19T23:55:36;101561.98;;;4.91;88.11
61478;BME280;47345;52.334;10.392;2023-02-19T23:58:07;101559.88;;;4.92;88.09
